createdAt,value
2022-09-18T00:02:55.654Z,12.611942
2022-09-18T00:07:57.148Z,12.491458
2022-09-18T00:12:58.717Z,12.922644
2022-09-18T00:18:00.176Z,11.906354
2022-09-18T00:23:01.948Z,11.470162
2022-09-18T00:28:03.523Z,12.402754
2022-09-18T00:33:04.967Z,11.986414
2022-09-18T00:38:06.633Z,12.400814
2022-09-18T00:43:08.095Z,11.99849
2022-09-18T00:48:09.634Z,11.96108
2022-09-18T00:53:11.312Z,11.69646
2022-09-18T00:58:12.868Z,11.53653
2022-09-18T01:03:14.606Z,10.852028
2022-09-18T01:08:16.390Z,10.999434
2022-09-18T01:13:18.015Z,11.023262
2022-09-18T01:18:19.751Z,11.388242
2022-09-18T01:28:32.227Z,11.107122
2022-09-18T01:33:33.953Z,11.262128
2022-09-18T01:38:35.662Z,10.987954
2022-09-18T01:43:37.627Z,10.86583
2022-09-18T01:48:39.372Z,10.45892
2022-09-18T01:53:40.904Z,11.10358
2022-09-18T01:58:42.830Z,11.268206
2022-09-18T02:03:44.250Z,11.108114
2022-09-18T02:08:45.806Z,9.998194
2022-09-18T02:13:47.340Z,11.130898
2022-09-18T02:18:49.056Z,11.039262
2022-09-18T02:23:51.026Z,10.986476
2022-09-18T02:28:53.209Z,10.280358
2022-09-18T02:33:54.947Z,10.813478
2022-09-18T02:38:56.909Z,10.78627
2022-09-18T02:43:58.629Z,10.702696
2022-09-18T02:49:00.343Z,10.549998
2022-09-18T02:54:02.409Z,10.542008
2022-09-18T02:59:04.420Z,10.440994
2022-09-18T03:04:06.268Z,10.032606
2022-09-18T03:09:07.990Z,10.63424
2022-09-18T03:14:09.574Z,10.089978
2022-09-18T03:19:11.290Z,10.704746
2022-09-18T03:24:12.635Z,10.280196
2022-09-18T03:29:14.930Z,9.92272
2022-09-18T03:34:16.701Z,10.33845
2022-09-18T03:39:18.200Z,10.345778
2022-09-18T03:44:20.026Z,9.717508
2022-09-18T03:49:21.703Z,10.376676
2022-09-18T03:54:23.457Z,10.749918
2022-09-18T03:59:25.792Z,10.70518
2022-09-18T04:04:27.590Z,10.40745
2022-09-18T04:09:29.340Z,10.574112
2022-09-18T04:14:31.135Z,11.051176
2022-09-18T04:19:32.857Z,10.382306
2022-09-18T04:24:34.613Z,10.992488
2022-09-18T04:29:36.591Z,11.37732
2022-09-18T04:34:38.318Z,10.415512
2022-09-18T04:39:39.793Z,11.126974
2022-09-18T04:44:41.344Z,10.599542
2022-09-18T04:49:43.008Z,11.01736
2022-09-18T04:54:44.458Z,11.417376
2022-09-18T04:59:46.244Z,11.60317
2022-09-18T05:04:47.886Z,12.02464
2022-09-18T05:09:49.342Z,11.786208
2022-09-18T05:14:50.870Z,12.114388
2022-09-18T05:19:52.676Z,12.52914
2022-09-18T05:24:54.284Z,13.10552
2022-09-18T05:29:55.919Z,14.37145
2022-09-18T05:34:57.600Z,14.195358
2022-09-18T05:39:59.360Z,15.136026
2022-09-18T05:45:02.017Z,16.11051
2022-09-18T05:50:03.961Z,16.61736
2022-09-18T05:55:05.605Z,17.006548
2022-09-18T06:00:07.513Z,16.876972
2022-09-18T06:05:09.263Z,17.611384
2022-09-18T06:10:10.979Z,17.914338
2022-09-18T06:15:12.723Z,18.965654
2022-09-18T06:20:14.497Z,19.478448
2022-09-18T06:25:16.256Z,19.675736
2022-09-18T06:30:18.455Z,20.290492
2022-09-18T06:35:20.189Z,21.286024
2022-09-18T06:40:22.022Z,21.411122
2022-09-18T06:45:23.952Z,21.52299
2022-09-18T06:50:25.654Z,21.837302
2022-09-18T06:55:27.409Z,21.693668
2022-09-18T07:00:29.674Z,22.09967
2022-09-18T07:05:31.418Z,23.103752
2022-09-18T07:10:33.137Z,22.460282
2022-09-18T07:15:34.811Z,23.155194
2022-09-18T07:20:36.563Z,23.226706
2022-09-18T07:25:38.308Z,23.807512
2022-09-18T07:30:40.284Z,23.736692
2022-09-18T07:35:41.729Z,24.05821
2022-09-18T07:40:43.424Z,24.14473
2022-09-18T07:45:44.954Z,24.517012
2022-09-18T07:50:46.465Z,24.360812
2022-09-18T07:55:47.906Z,24.467618
2022-09-18T08:00:49.712Z,25.761888
2022-09-18T08:05:51.273Z,24.75163
2022-09-18T08:10:53.007Z,24.749174
2022-09-18T08:15:54.841Z,25.807182
2022-09-18T08:20:56.515Z,25.597926
2022-09-18T08:25:58.242Z,25.621998
2022-09-18T08:31:00.407Z,25.540784
2022-09-18T08:36:02.186Z,25.711802
2022-09-18T08:41:03.771Z,27.046102
2022-09-18T08:46:05.202Z,26.605184
2022-09-18T08:51:06.812Z,25.994334
2022-09-18T08:56:08.570Z,26.802256
2022-09-18T09:01:10.565Z,26.41141
2022-09-18T09:06:12.332Z,26.781508
2022-09-18T09:11:13.961Z,27.119622
2022-09-18T09:16:15.733Z,27.402996
2022-09-18T09:21:17.433Z,26.832068
2022-09-18T09:26:19.144Z,26.823438
2022-09-18T09:31:21.042Z,26.904448
2022-09-18T09:36:22.747Z,27.168174
2022-09-18T09:41:24.209Z,27.079212
2022-09-18T09:46:25.800Z,27.418642
2022-09-18T09:51:27.292Z,27.16793
2022-09-18T09:56:28.718Z,28.005244
2022-09-18T10:01:31.340Z,27.840156
2022-09-18T10:06:32.804Z,28.206318
2022-09-18T10:11:34.508Z,27.864662
2022-09-18T10:16:36.252Z,28.027104
2022-09-18T10:21:37.878Z,27.541556
2022-09-18T10:26:39.344Z,27.454194
2022-09-18T10:31:41.116Z,27.555044
2022-09-18T10:36:42.753Z,27.938142
2022-09-18T10:41:44.370Z,27.42924
2022-09-18T10:46:45.876Z,28.170536
2022-09-18T10:51:47.351Z,28.47577
2022-09-18T10:56:48.901Z,27.401192
2022-09-18T11:01:51.508Z,28.867512
2022-09-18T11:06:53.010Z,29.114696
2022-09-18T11:11:54.564Z,28.222616
2022-09-18T11:16:56.230Z,28.152868
2022-09-18T11:21:57.710Z,28.463856
2022-09-18T11:26:59.173Z,28.276704
2022-09-18T11:32:01.232Z,29.419918
2022-09-18T11:37:02.760Z,26.440274
2022-09-18T11:42:04.471Z,27.926906
2022-09-18T11:47:06.058Z,28.091316
2022-09-18T11:52:07.779Z,28.214704
2022-09-18T11:57:09.310Z,28.20872
2022-09-18T12:02:11.176Z,28.375342
2022-09-18T12:07:12.736Z,28.635336
2022-09-18T12:12:12.950Z,28.235208
2022-09-18T12:17:14.594Z,27.424382
2022-09-18T12:22:16.208Z,27.695
2022-09-18T12:27:17.929Z,27.916512
2022-09-18T12:32:19.769Z,28.06442
2022-09-18T12:37:21.546Z,28.079388
2022-09-18T12:42:23.939Z,28.694486
2022-09-18T12:47:25.695Z,27.992434
2022-09-18T12:52:27.728Z,27.998622
2022-09-18T12:57:29.679Z,27.513114
2022-09-18T13:02:31.623Z,28.006126
2022-09-18T13:07:33.338Z,28.123734
2022-09-18T13:12:35.058Z,27.67884
2022-09-18T13:17:37.223Z,27.645092
2022-09-18T13:22:39.007Z,27.231056
2022-09-18T13:27:40.594Z,27.999938
2022-09-18T13:32:42.379Z,28.055994
2022-09-18T13:37:43.894Z,27.043904
2022-09-18T13:42:45.637Z,27.490562
2022-09-18T13:47:47.451Z,27.509098
2022-09-18T13:52:49.212Z,27.318892
2022-09-18T13:57:51.009Z,27.08251
2022-09-18T14:02:53.289Z,27.217338
2022-09-18T14:07:55.005Z,27.485704
2022-09-18T14:12:56.753Z,26.883022
2022-09-18T14:17:58.532Z,26.75061
2022-09-18T14:23:00.307Z,26.502992
2022-09-18T14:28:01.855Z,26.952526
2022-09-18T14:33:03.794Z,26.427708
2022-09-18T14:38:05.711Z,26.317156
2022-09-18T14:43:07.455Z,26.652814
2022-09-18T14:48:11.764Z,26.120302
2022-09-18T14:53:16.928Z,25.837606
2022-09-18T14:58:18.635Z,26.080366
2022-09-18T15:03:20.600Z,25.643384
2022-09-18T15:08:26.372Z,25.32956
2022-09-18T15:13:28.474Z,25.55354
2022-09-18T15:18:30.310Z,24.872482
2022-09-18T15:23:32.189Z,24.736976
2022-09-18T15:28:33.922Z,24.920396
2022-09-18T15:33:35.881Z,24.845546
2022-09-18T15:38:37.702Z,24.677378
2022-09-18T15:43:39.474Z,24.147322
2022-09-18T15:48:41.359Z,24.395822
2022-09-18T15:53:42.912Z,24.084888
2022-09-18T15:58:44.340Z,23.610848
2022-09-18T16:03:46.018Z,23.511722
2022-09-18T16:08:47.632Z,23.556556
2022-09-18T16:13:49.150Z,22.939302
2022-09-18T16:18:50.611Z,23.029106
2022-09-18T16:23:52.097Z,22.904632
2022-09-18T16:28:53.956Z,22.809292
2022-09-18T16:33:55.774Z,22.583304
2022-09-18T16:38:57.420Z,22.424662
2022-09-18T16:43:59.091Z,22.428638
2022-09-18T16:49:00.716Z,22.7661
2022-09-18T16:54:02.468Z,22.304992
2022-09-18T16:59:04.098Z,22.286062
2022-09-18T17:04:05.919Z,21.938708
2022-09-18T17:09:07.548Z,22.171304
2022-09-18T17:14:09.179Z,22.024074
2022-09-18T17:19:10.856Z,21.783146
2022-09-18T17:24:12.482Z,21.953268
2022-09-18T17:29:14.114Z,21.911772
2022-09-18T17:34:15.854Z,21.545
2022-09-18T17:39:17.466Z,21.683206
2022-09-18T17:44:19.355Z,21.540644
2022-09-18T17:49:20.999Z,21.03458
2022-09-18T17:54:22.716Z,20.99113
2022-09-18T17:59:24.449Z,20.815662
2022-09-18T18:04:26.369Z,21.047186
2022-09-18T18:09:28.107Z,20.817426
2022-09-18T18:14:29.848Z,20.725424
2022-09-18T18:19:31.597Z,20.143262
2022-09-18T18:24:33.422Z,20.033606
2022-09-18T18:29:35.161Z,19.447034
2022-09-18T18:34:37.144Z,19.608132
2022-09-18T18:39:38.778Z,19.192374
2022-09-18T18:44:40.532Z,18.486702
2022-09-18T18:49:42.316Z,18.555106
2022-09-18T18:54:43.942Z,18.500014
2022-09-18T18:59:45.777Z,18.659714
2022-09-18T19:04:47.751Z,18.40177
2022-09-18T19:09:49.172Z,17.669298
2022-09-18T19:14:52.609Z,17.620312
2022-09-18T19:19:54.311Z,17.516234
2022-09-18T19:24:55.826Z,17.549072
2022-09-18T19:29:57.613Z,17.610936
2022-09-18T19:34:59.502Z,17.111332
2022-09-18T19:40:01.263Z,17.735668
2022-09-18T19:45:03.091Z,17.350902
2022-09-18T19:50:05.656Z,17.189452
2022-09-18T19:55:07.380Z,17.3155
2022-09-18T20:00:09.083Z,16.515764
2022-09-18T20:05:11.079Z,17.087056
2022-09-18T20:10:12.833Z,16.18696
2022-09-18T20:15:14.556Z,16.120048
2022-09-18T20:20:16.680Z,15.995412
2022-09-18T20:25:18.194Z,16.591862
2022-09-18T20:30:19.638Z,16.295788
2022-09-18T20:35:21.277Z,15.866284
2022-09-18T20:40:22.813Z,16.267902
2022-09-18T20:45:24.302Z,15.960986
2022-09-18T20:50:25.724Z,15.99012
2022-09-18T20:55:27.156Z,15.495456
2022-09-18T21:00:29.127Z,15.843854
2022-09-18T21:05:30.962Z,15.792928
2022-09-18T21:10:32.505Z,15.984286
2022-09-18T21:15:33.924Z,15.956224
2022-09-18T21:20:35.603Z,15.644192
2022-09-18T21:25:37.196Z,15.43058
2022-09-18T21:30:38.651Z,15.769968
2022-09-18T21:35:40.419Z,15.993296
2022-09-18T21:40:41.983Z,15.511346
2022-09-18T21:45:43.424Z,15.386614
2022-09-18T21:50:44.976Z,15.103282
2022-09-18T21:55:46.249Z,15.789034
2022-09-18T22:00:47.678Z,14.532276
2022-09-18T22:05:49.421Z,15.097448
2022-09-18T22:10:50.799Z,15.43438
2022-09-18T22:15:52.531Z,15.903792
2022-09-18T22:20:54.188Z,15.82373
2022-09-18T22:26:00.060Z,16.26561
2022-09-18T22:31:03.462Z,16.265162
2022-09-18T22:36:05.403Z,16.528642
2022-09-18T22:41:06.874Z,16.535454
2022-09-18T22:46:08.619Z,16.525914
2022-09-18T22:51:09.979Z,16.629898
2022-09-18T22:56:11.423Z,16.429964
2022-09-18T23:01:12.837Z,15.715594
2022-09-18T23:06:14.643Z,16.109546
2022-09-18T23:11:16.364Z,16.146442
2022-09-18T23:16:18.053Z,16.05349
2022-09-18T23:21:19.654Z,15.707304
2022-09-18T23:26:21.341Z,15.84403
2022-09-18T23:31:23.074Z,16.126576
2022-09-18T23:36:25.082Z,16.194994
2022-09-18T23:41:26.857Z,16.370652
2022-09-18T23:46:28.491Z,16.165942
2022-09-18T23:51:30.074Z,16.41611
2022-09-18T23:56:31.571Z,16.378766
